Time;durP1;ratioP1;P1;durP2;ratioP2;P2;SDS_P1;SDS_P2;PMS_P1;PMS_P2;Temp;Humidity;BMP_temperature;BMP_pressure;BME280_temperature;BME280_humidity;BME280_pressure;Samples;Min_cycle;Max_cycle;Signal;HPM_P1;HPM_P2
2023/05/22 00:00:17;;;;;;;1.73;1.50;;;14.20;61.30;;;;;;5011799;28;20209;-52
2023/05/22 00:02:49;;;;;;;2.08;1.70;;;14.20;62.20;;;;;;5012915;28;20239;-54
2023/05/22 00:05:20;;;;;;;2.00;1.60;;;14.20;61.50;;;;;;5012384;28;20718;-55
2023/05/22 00:07:50;;;;;;;2.20;1.50;;;14.20;61.50;;;;;;5011562;28;20205;-50
2023/05/22 00:10:21;;;;;;;2.55;1.90;;;14.20;61.60;;;;;;5012329;28;20721;-52
2023/05/22 00:12:54;;;;;;;2.20;1.75;;;14.30;61.70;;;;;;5012875;28;20201;-50
2023/05/22 00:15:24;;;;;;;1.70;1.52;;;14.30;61.60;;;;;;5012007;28;20194;-55
2023/05/22 00:17:55;;;;;;;1.75;1.65;;;14.30;61.50;;;;;;5011477;28;20197;-57
2023/05/22 00:20:26;;;;;;;2.63;1.90;;;14.30;61.50;;;;;;5011212;28;20204;-50
2023/05/22 00:22:56;;;;;;;2.00;1.80;;;14.40;61.60;;;;;;5012200;28;20583;-54
2023/05/22 00:25:27;;;;;;;2.70;1.90;;;14.40;61.50;;;;;;5011802;28;20220;-52
2023/05/22 00:27:59;;;;;;;2.03;1.70;;;14.40;61.50;;;;;;5010783;28;20201;-52
2023/05/22 00:30:30;;;;;;;1.83;1.58;;;14.50;61.50;;;;;;5011229;28;20800;-54
2023/05/22 00:33:01;;;;;;;2.17;1.73;;;14.50;61.50;;;;;;5011687;28;20653;-58
2023/05/22 00:35:31;;;;;;;1.67;1.40;;;14.50;61.60;;;;;;5011582;28;20193;-55
2023/05/22 00:38:04;;;;;;;1.80;1.50;;;14.50;61.80;;;;;;5011344;28;20736;-50
2023/05/22 00:40:35;;;;;;;2.08;1.42;;;14.60;62.00;;;;;;5011246;28;20241;-55
2023/05/22 00:43:08;;;;;;;2.40;1.70;;;14.60;62.00;;;;;;5011089;28;20204;-52
2023/05/22 00:45:38;;;;;;;2.28;1.40;;;14.60;62.00;;;;;;5011905;28;20651;-56
2023/05/22 00:48:11;;;;;;;1.95;1.45;;;14.70;62.10;;;;;;5011482;28;20563;-54
2023/05/22 00:50:41;;;;;;;1.75;1.35;;;14.70;62.00;;;;;;5011477;28;20724;-55
2023/05/22 00:53:12;;;;;;;1.88;1.58;;;14.70;62.00;;;;;;5011493;28;20208;-58
2023/05/22 00:55:43;;;;;;;2.20;1.42;;;14.80;62.10;;;;;;5011163;28;20600;-55
2023/05/22 00:58:18;;;;;;;2.42;1.20;;;14.80;62.10;;;;;;5011445;28;20193;-54
2023/05/22 01:00:49;;;;;;;3.83;1.75;;;14.80;62.40;;;;;;5010655;28;20223;-55
2023/05/22 01:03:24;;;;;;;7.95;5.22;;;14.80;62.40;;;;;;5010745;28;20196;-54
2023/05/22 01:05:55;;;;;;;3.83;2.47;;;14.90;62.40;;;;;;5010693;28;20200;-55
2023/05/22 01:08:26;;;;;;;3.17;2.08;;;14.90;62.30;;;;;;5010465;28;20215;-52
2023/05/22 01:11:03;;;;;;;4.45;2.53;;;14.90;62.30;;;;;;5010237;28;20223;-57
2023/05/22 01:13:45;;;;;;;4.57;2.42;;;15.00;62.40;;;;;;5011775;28;20536;-53
2023/05/22 01:16:22;;;;;;;4.00;2.50;;;15.00;62.30;;;;;;5010698;28;20188;-49
2023/05/22 01:19:02;;;;;;;5.43;2.63;;;15.00;62.30;;;;;;5011042;28;20193;-52
2023/05/22 01:21:44;;;;;;;2.95;2.15;;;15.10;62.40;;;;;;5011127;28;20302;-52
2023/05/22 01:24:36;;;;;;;4.30;2.92;;;15.10;62.40;;;;;;5010888;28;20229;-56
2023/05/22 01:27:34;;;;;;;4.20;2.50;;;15.20;62.50;;;;;;5010976;28;20607;-55
2023/05/22 01:30:22;;;;;;;3.40;2.75;;;15.20;62.40;;;;;;5011234;28;20244;-57
2023/05/22 01:32:58;;;;;;;5.05;2.22;;;15.20;62.40;;;;;;5010059;28;20197;-56
2023/05/22 01:35:30;;;;;;;4.30;2.38;;;15.30;62.40;;;;;;5010911;28;20263;-49
2023/05/22 01:38:01;;;;;;;2.75;2.22;;;15.30;62.40;;;;;;5010043;28;20211;-54
2023/05/22 01:40:32;;;;;;;2.90;2.33;;;15.40;62.50;;;;;;5010127;28;20220;-53
2023/05/22 01:43:03;;;;;;;3.65;2.63;;;15.40;62.50;;;;;;5011271;28;20200;-50
2023/05/22 01:45:34;;;;;;;4.60;2.47;;;15.40;62.40;;;;;;5009524;28;20223;-53
2023/05/22 01:48:07;;;;;;;2.92;2.30;;;15.50;62.50;;;;;;5010798;28;20195;-54
2023/05/22 01:50:38;;;;;;;3.97;2.30;;;15.50;62.40;;;;;;5010393;28;20228;-51
2023/05/22 01:53:13;;;;;;;3.40;2.40;;;15.50;62.30;;;;;;5010400;28;20676;-52
2023/05/22 01:55:49;;;;;;;3.97;2.28;;;15.50;62.30;;;;;;5009493;28;20742;-58
2023/05/22 01:58:27;;;;;;;3.08;2.15;;;15.60;62.30;;;;;;5010410;28;20196;-53
2023/05/22 02:01:02;;;;;;;3.42;2.20;;;15.60;62.20;;;;;;5010308;28;20219;-53
2023/05/22 02:03:36;;;;;;;4.28;2.30;;;15.70;62.30;;;;;;5010191;28;20235;-55
2023/05/22 02:06:10;;;;;;;3.35;2.30;;;15.70;62.30;;;;;;5010394;28;20219;-52
2023/05/22 02:08:42;;;;;;;11.50;6.50;;;15.70;62.30;;;;;;5010085;28;20204;-51
2023/05/22 02:11:15;;;;;;;16.58;11.35;;;15.70;62.80;;;;;;5005075;28;20217;-56
2023/05/22 02:13:46;;;;;;;21.50;11.07;;;15.80;63.90;;;;;;5010499;28;20200;-48
2023/05/22 02:16:18;;;;;;;19.83;12.15;;;15.90;64.10;;;;;;5010484;28;20193;-50
2023/05/22 02:18:52;;;;;;;23.35;14.13;;;15.90;64.30;;;;;;5009778;28;20311;-58
2023/05/22 02:21:24;;;;;;;22.27;14.18;;;15.90;64.30;;;;;;5010598;28;20235;-55
2023/05/22 02:23:55;;;;;;;22.08;13.38;;;16.00;64.30;;;;;;5014280;28;20192;-55
2023/05/22 02:26:26;;;;;;;23.13;12.88;;;16.00;64.30;;;;;;5014157;28;20189;-51
2023/05/22 02:28:56;;;;;;;25.30;14.07;;;16.00;64.20;;;;;;5014230;28;20197;-48
2023/05/22 02:31:27;;;;;;;23.73;13.43;;;16.00;64.10;;;;;;5013631;28;20217;-56
2023/05/22 02:34:00;;;;;;;21.02;12.68;;;16.10;64.10;;;;;;5013957;28;20662;-51
2023/05/22 02:36:30;;;;;;;20.98;12.80;;;16.20;64.10;;;;;;5013820;28;20613;-54
2023/05/22 02:39:01;;;;;;;19.58;13.13;;;16.20;64.00;;;;;;5014283;28;20197;-51
2023/05/22 02:41:32;;;;;;;25.77;13.80;;;16.20;63.90;;;;;;5013508;28;20219;-53
2023/05/22 02:44:02;;;;;;;20.48;13.40;;;16.20;63.80;;;;;;5014122;28;20204;-54
2023/05/22 02:46:33;;;;;;;21.38;13.95;;;16.30;63.80;;;;;;5013443;28;20589;-58
2023/05/22 02:49:05;;;;;;;20.63;13.88;;;16.30;63.70;;;;;;5013379;28;20613;-56
2023/05/22 02:51:36;;;;;;;19.95;13.25;;;16.30;63.60;;;;;;5013040;28;20217;-53
2023/05/22 02:54:07;;;;;;;19.95;10.77;;;16.40;63.60;;;;;;5013216;28;20234;-60
2023/05/22 02:56:38;;;;;;;17.83;10.23;;;16.40;63.80;;;;;;5013454;28;20553;-52
2023/05/22 02:59:08;;;;;;;14.30;9.25;;;16.40;64.50;;;;;;5012742;28;20661;-52
2023/05/22 03:01:39;;;;;;;20.50;9.90;;;16.50;64.80;;;;;;5013570;28;20624;-55
2023/05/22 03:04:12;;;;;;;17.10;9.63;;;16.50;64.60;;;;;;5013437;28;20232;-56
2023/05/22 03:06:45;;;;;;;16.10;9.82;;;16.60;64.50;;;;;;5012940;28;20238;-51
2023/05/22 03:09:15;;;;;;;17.38;9.93;;;16.60;64.40;;;;;;5013223;28;20273;-54
2023/05/22 03:11:46;;;;;;;15.93;9.23;;;16.60;64.30;;;;;;5013049;28;20204;-48
2023/05/22 03:14:17;;;;;;;14.70;8.88;;;16.70;64.30;;;;;;5013688;28;20201;-53
2023/05/22 03:16:47;;;;;;;15.32;8.98;;;16.70;64.20;;;;;;5013053;28;20193;-53
2023/05/22 03:19:20;;;;;;;13.00;8.52;;;16.70;64.10;;;;;;5013921;28;20227;-53
2023/05/22 03:21:50;;;;;;;14.75;7.30;;;16.80;64.00;;;;;;5012939;28;20200;-54
2023/05/22 03:24:21;;;;;;;18.65;6.95;;;16.80;64.00;;;;;;5013204;28;20255;-56
2023/05/22 03:26:52;;;;;;;14.52;5.90;;;16.80;64.00;;;;;;5011186;28;20700;-51
2023/05/22 03:29:22;;;;;;;17.60;6.03;;;16.90;64.10;;;;;;5013089;28;20200;-51
2023/05/22 03:31:53;;;;;;;11.98;6.30;;;16.90;64.20;;;;;;5012153;28;20193;-52
2023/05/22 03:34:26;;;;;;;12.00;5.30;;;16.90;64.10;;;;;;5011187;28;20193;-53
2023/05/22 03:36:56;;;;;;;16.38;5.93;;;16.90;64.20;;;;;;5012834;28;20200;-49
2023/05/22 03:39:27;;;;;;;14.02;5.43;;;16.90;64.10;;;;;;5011995;28;20259;-54
2023/05/22 03:41:58;;;;;;;14.95;5.55;;;17.00;64.10;;;;;;5012653;28;20653;-56
2023/05/22 03:44:28;;;;;;;13.25;5.53;;;17.00;64.10;;;;;;5012118;28;20280;-57
2023/05/22 03:46:59;;;;;;;11.00;5.18;;;17.00;64.10;;;;;;5013224;28;20189;-57
2023/05/22 03:49:31;;;;;;;13.55;5.22;;;17.00;64.00;;;;;;5012014;28;20212;-54
2023/05/22 03:52:02;;;;;;;12.25;5.38;;;17.10;64.00;;;;;;5013074;28;20204;-57
2023/05/22 03:54:33;;;;;;;14.07;6.35;;;17.10;63.90;;;;;;5012080;28;20205;-54
2023/05/22 03:57:03;;;;;;;9.32;5.10;;;17.10;63.90;;;;;;5012408;28;20201;-56
2023/05/22 03:59:34;;;;;;;9.73;4.68;;;17.10;63.80;;;;;;5012880;28;20715;-53
2023/05/22 04:02:05;;;;;;;8.05;4.53;;;17.20;63.90;;;;;;5012579;28;20193;-57
2023/05/22 04:04:37;;;;;;;10.20;5.13;;;17.20;63.80;;;;;;5012425;28;20216;-55
2023/05/22 04:07:11;;;;;;;11.52;4.88;;;17.30;63.70;;;;;;5011891;28;20200;-58
2023/05/22 04:09:42;;;;;;;8.90;4.43;;;17.30;63.60;;;;;;5012060;28;20232;-53
2023/05/22 04:12:13;;;;;;;8.23;4.55;;;17.30;63.60;;;;;;5011982;28;20678;-52
2023/05/22 04:14:44;;;;;;;10.00;4.75;;;17.30;63.50;;;;;;5012009;28;20552;-56
2023/05/22 04:17:14;;;;;;;9.20;4.20;;;17.40;63.40;;;;;;5011682;28;20193;-55
2023/05/22 04:19:47;;;;;;;10.10;4.53;;;17.40;63.30;;;;;;5011016;28;20224;-55
2023/05/22 04:22:18;;;;;;;11.63;5.43;;;17.50;63.30;;;;;;5011890;28;20216;-54
2023/05/22 04:24:48;;;;;;;9.52;4.40;;;17.50;63.20;;;;;;5012130;28;20220;-55
2023/05/22 04:27:20;;;;;;;8.50;4.60;;;17.50;63.10;;;;;;5012200;28;20197;-56
2023/05/22 04:29:51;;;;;;;7.63;4.90;;;17.60;63.10;;;;;;5011894;28;20212;-57
2023/05/22 04:32:22;;;;;;;8.35;4.97;;;17.60;63.00;;;;;;5011682;28;20193;-56
2023/05/22 04:34:57;;;;;;;6.88;4.15;;;17.60;62.90;;;;;;5010975;28;20240;-57
2023/05/22 04:37:27;;;;;;;8.15;4.10;;;17.60;62.90;;;;;;5011267;28;20196;-57
2023/05/22 04:40:02;;;;;;;8.38;4.88;;;17.70;62.80;;;;;;5011506;28;20212;-57
2023/05/22 04:42:33;;;;;;;8.57;4.82;;;17.70;62.70;;;;;;5011937;28;20223;-54
2023/05/22 04:45:03;;;;;;;7.63;4.13;;;17.70;62.70;;;;;;5011288;28;20286;-54
2023/05/22 04:47:36;;;;;;;7.85;4.55;;;17.70;62.70;;;;;;5011133;28;20720;-54
2023/05/22 04:50:10;;;;;;;8.70;4.47;;;17.70;62.70;;;;;;5011227;28;20795;-58
2023/05/22 04:52:41;;;;;;;7.05;3.78;;;17.70;62.60;;;;;;5011057;28;20195;-56
2023/05/22 04:55:12;;;;;;;10.10;4.63;;;17.70;62.60;;;;;;5011852;28;20201;-57
2023/05/22 04:57:44;;;;;;;8.57;4.63;;;17.70;62.60;;;;;;5010513;28;20229;-53
2023/05/22 05:00:16;;;;;;;9.13;4.50;;;17.80;62.60;;;;;;5010930;28;20694;-54
2023/05/22 05:02:48;;;;;;;7.65;4.13;;;17.70;62.50;;;;;;5010850;28;20232;-55
2023/05/22 05:05:21;;;;;;;7.90;4.57;;;17.80;62.50;;;;;;5010807;28;20279;-53
2023/05/22 05:07:52;;;;;;;6.15;3.70;;;17.80;62.50;;;;;;5011220;28;20193;-53
2023/05/22 05:10:23;;;;;;;7.45;4.50;;;17.80;62.50;;;;;;5011170;28;20252;-53
2023/05/22 05:12:53;;;;;;;10.52;4.35;;;17.80;62.40;;;;;;5011330;28;20668;-56
2023/05/22 05:15:26;;;;;;;6.13;4.25;;;17.80;62.40;;;;;;5011039;28;20255;-54
2023/05/22 05:17:56;;;;;;;5.97;3.70;;;17.70;62.40;;;;;;5010233;28;20630;-55
2023/05/22 05:20:29;;;;;;;5.90;3.75;;;17.80;62.40;;;;;;5010693;28;20221;-53
2023/05/22 05:22:59;;;;;;;8.02;4.50;;;17.80;62.30;;;;;;5009732;28;20203;-57
2023/05/22 05:25:30;;;;;;;8.30;4.60;;;17.80;62.30;;;;;;5010280;28;20243;-55
2023/05/22 05:28:01;;;;;;;6.82;4.10;;;17.80;62.30;;;;;;5010642;28;20692;-55
2023/05/22 05:30:31;;;;;;;7.40;3.95;;;17.80;62.20;;;;;;5010400;28;20217;-57
2023/05/22 05:33:02;;;;;;;5.95;3.80;;;17.80;62.20;;;;;;5011302;28;20247;-55
2023/05/22 05:35:35;;;;;;;5.30;3.40;;;17.80;62.00;;;;;;5011414;28;20684;-57
2023/05/22 05:38:06;;;;;;;7.20;4.53;;;17.80;62.00;;;;;;5010435;28;20192;-54
2023/05/22 05:40:36;;;;;;;7.18;4.55;;;17.80;61.90;;;;;;5010616;28;20228;-52
2023/05/22 05:43:07;;;;;;;5.82;3.95;;;17.70;61.70;;;;;;5010611;28;20672;-59
2023/05/22 05:45:38;;;;;;;5.75;3.45;;;17.70;61.60;;;;;;5011868;28;20696;-53
2023/05/22 05:48:09;;;;;;;6.32;3.97;;;17.70;61.60;;;;;;5010139;28;20185;-54
2023/05/22 05:50:41;;;;;;;6.43;3.70;;;17.70;61.40;;;;;;5010516;28;20689;-51
2023/05/22 05:53:12;;;;;;;5.90;3.95;;;17.70;61.40;;;;;;5010567;28;20676;-55
2023/05/22 05:55:42;;;;;;;6.32;4.22;;;17.70;61.50;;;;;;5010681;28;20212;-54
2023/05/22 05:58:13;;;;;;;6.90;4.20;;;17.70;61.50;;;;;;5014289;28;20654;-55
2023/05/22 06:00:44;;;;;;;5.55;3.92;;;17.70;61.60;;;;;;5014682;28;20212;-57
2023/05/22 06:03:14;;;;;;;6.25;3.28;;;17.70;61.60;;;;;;5014795;28;20212;-52
2023/05/22 06:05:47;;;;;;;5.60;3.70;;;17.70;61.60;;;;;;5014705;28;20232;-51
2023/05/22 06:08:18;;;;;;;5.95;4.03;;;17.70;61.60;;;;;;5015183;28;20200;-52
2023/05/22 06:10:49;;;;;;;6.82;4.18;;;17.70;61.50;;;;;;5010936;28;20213;-52
2023/05/22 06:13:19;;;;;;;6.30;3.95;;;17.70;61.40;;;;;;5014351;28;20219;-58
2023/05/22 06:15:50;;;;;;;6.13;3.65;;;17.70;61.30;;;;;;5014550;28;20215;-55
2023/05/22 06:18:22;;;;;;;7.07;3.88;;;17.60;61.20;;;;;;5013205;28;20193;-52
2023/05/22 06:20:56;;;;;;;5.78;3.58;;;17.60;61.10;;;;;;5014192;28;20216;-57
2023/05/22 06:23:28;;;;;;;7.57;3.83;;;17.60;61.10;;;;;;5013309;28;20254;-52
2023/05/22 06:25:58;;;;;;;6.78;4.15;;;17.60;61.00;;;;;;5013412;28;20236;-50
2023/05/22 06:28:29;;;;;;;5.57;3.92;;;17.60;61.10;;;;;;5013098;28;20653;-53
2023/05/22 06:31:00;;;;;;;4.28;3.55;;;17.60;61.10;;;;;;5013604;28;20221;-57
2023/05/22 06:33:30;;;;;;;6.60;4.20;;;17.60;61.00;;;;;;5014278;28;20227;-56
2023/05/22 06:36:03;;;;;;;6.43;3.85;;;17.50;61.00;;;;;;5014478;28;20570;-54
2023/05/22 06:38:34;;;;;;;5.95;3.40;;;17.50;61.00;;;;;;5013265;28;20220;-55
2023/05/22 06:41:04;;;;;;;6.82;3.63;;;17.50;61.00;;;;;;5013923;28;20232;-56
2023/05/22 06:43:35;;;;;;;5.47;3.60;;;17.50;61.10;;;;;;5012892;28;20196;-57
2023/05/22 06:46:06;;;;;;;6.28;3.50;;;17.50;61.20;;;;;;5013580;28;20223;-58
2023/05/22 06:48:37;;;;;;;5.90;3.65;;;17.50;61.30;;;;;;5012468;28;20199;-58
2023/05/22 06:51:11;;;;;;;5.60;3.38;;;17.50;61.20;;;;;;5012921;28;20233;-54
2023/05/22 06:53:42;;;;;;;6.13;3.95;;;17.50;61.20;;;;;;5013687;28;20279;-55
2023/05/22 06:56:13;;;;;;;6.72;4.05;;;17.50;61.10;;;;;;5013268;28;20767;-54
2023/05/22 06:58:43;;;;;;;6.68;3.65;;;17.50;61.10;;;;;;5012596;28;20205;-58
2023/05/22 07:01:14;;;;;;;6.57;3.53;;;17.50;61.50;;;;;;5013315;28;20216;-55
2023/05/22 07:03:44;;;;;;;5.15;3.60;;;17.50;61.00;;;;;;5013112;28;20200;-52
2023/05/22 07:06:17;;;;;;;5.32;3.85;;;17.40;60.90;;;;;;5012485;28;20252;-57
2023/05/22 07:08:48;;;;;;;5.70;3.60;;;17.40;60.90;;;;;;5011884;28;20189;-56
2023/05/22 07:11:18;;;;;;;7.60;3.75;;;17.40;60.90;;;;;;5012982;28;20225;-52
2023/05/22 07:13:49;;;;;;;4.75;3.40;;;17.40;60.90;;;;;;5012779;28;20684;-52
2023/05/22 07:16:20;;;;;;;4.93;3.63;;;17.40;60.80;;;;;;5012575;28;20185;-52
2023/05/22 07:18:51;;;;;;;4.97;3.35;;;17.40;60.80;;;;;;5012303;28;20197;-55
2023/05/22 07:21:24;;;;;;;5.13;3.58;;;17.40;60.70;;;;;;5012716;28;20263;-59
2023/05/22 07:23:55;;;;;;;6.22;3.78;;;17.30;60.60;;;;;;5012601;28;20239;-51
2023/05/22 07:26:26;;;;;;;4.10;3.13;;;17.40;60.80;;;;;;5012880;28;20216;-57
2023/05/22 07:28:56;;;;;;;4.85;3.60;;;17.30;60.60;;;;;;5011580;28;20236;-56
2023/05/22 07:31:27;;;;;;;5.18;3.47;;;17.30;60.60;;;;;;5013444;28;20213;-51
2023/05/22 07:33:58;;;;;;;5.22;3.50;;;17.30;60.70;;;;;;5013369;28;20201;-56
2023/05/22 07:36:30;;;;;;;6.05;3.80;;;17.30;60.70;;;;;;5013282;28;20206;-58
2023/05/22 07:39:01;;;;;;;5.85;3.70;;;17.30;60.70;;;;;;5013402;28;20203;-57
2023/05/22 07:41:31;;;;;;;6.30;3.88;;;17.30;60.80;;;;;;5013060;28;20224;-56
2023/05/22 07:44:02;;;;;;;4.47;3.40;;;17.30;60.70;;;;;;5012874;28;20201;-52
2023/05/22 07:46:34;;;;;;;5.18;3.67;;;17.20;60.60;;;;;;5013376;28;20231;-55
2023/05/22 07:49:04;;;;;;;5.30;3.65;;;17.20;60.60;;;;;;5013388;28;20263;-59
2023/05/22 07:51:37;;;;;;;6.35;3.75;;;17.20;60.70;;;;;;5012986;28;20217;-57
2023/05/22 07:54:08;;;;;;;5.68;3.72;;;17.20;60.70;;;;;;5012734;28;20208;-52
2023/05/22 07:56:42;;;;;;;5.25;4.00;;;17.20;60.70;;;;;;5012632;28;20201;-57
2023/05/22 07:59:13;;;;;;;5.70;3.92;;;17.10;60.60;;;;;;5012613;28;20232;-55
2023/05/22 08:01:44;;;;;;;4.93;3.35;;;17.10;60.60;;;;;;5012433;28;20286;-55
2023/05/22 08:04:14;;;;;;;5.80;4.00;;;17.10;60.60;;;;;;5012560;28;20197;-52
2023/05/22 08:06:47;;;;;;;5.28;4.03;;;17.10;60.50;;;;;;5012198;28;20594;-53
2023/05/22 08:09:19;;;;;;;5.38;3.78;;;17.10;60.60;;;;;;5011794;28;20192;-55
2023/05/22 08:11:50;;;;;;;4.22;3.55;;;17.10;60.60;;;;;;5011767;28;20204;-57
2023/05/22 08:14:22;;;;;;;5.03;3.63;;;17.10;60.60;;;;;;5012727;28;20716;-52
2023/05/22 08:16:53;;;;;;;4.55;3.50;;;17.10;60.60;;;;;;5012473;28;20192;-50
2023/05/22 08:19:23;;;;;;;6.40;4.28;;;17.00;60.60;;;;;;5012259;28;20197;-57
2023/05/22 08:21:56;;;;;;;5.13;3.50;;;17.00;60.60;;;;;;5012606;28;20646;-56
2023/05/22 08:24:28;;;;;;;4.45;3.65;;;17.00;60.60;;;;;;5012060;28;20255;-54
2023/05/22 08:26:59;;;;;;;4.47;3.63;;;17.00;60.50;;;;;;5011509;28;20228;-54
2023/05/22 08:29:30;;;;;;;4.38;3.22;;;17.00;60.60;;;;;;5012375;28;20196;-54
2023/05/22 08:32:00;;;;;;;4.47;3.83;;;16.90;60.50;;;;;;5012326;28;20197;-58
2023/05/22 08:34:31;;;;;;;3.75;2.75;;;16.90;60.50;;;;;;5012003;28;20219;-50
2023/05/22 08:37:04;;;;;;;3.22;2.20;;;16.90;60.20;;;;;;5011814;28;20248;-51
2023/05/22 08:39:34;;;;;;;6.85;3.90;;;16.90;59.10;;;;;;5011613;28;20656;-54
2023/05/22 08:42:06;;;;;;;7.80;5.07;;;16.80;58.10;;;;;;5011646;28;20656;-54
2023/05/22 08:44:36;;;;;;;7.47;4.68;;;16.70;57.50;;;;;;5012486;28;20204;-55
2023/05/22 08:47:10;;;;;;;7.97;4.35;;;16.60;57.40;;;;;;5009202;28;20224;-53
2023/05/22 08:49:41;;;;;;;6.95;4.18;;;16.50;57.60;;;;;;5009400;28;20201;-56
2023/05/22 08:52:18;;;;;;;7.35;4.35;;;16.40;57.80;;;;;;5011548;28;20210;-53
2023/05/22 08:54:54;;;;;;;6.43;4.18;;;16.40;58.10;;;;;;5011185;28;20189;-49
2023/05/22 08:57:24;;;;;;;7.13;4.10;;;16.30;58.20;;;;;;5010726;28;20220;-51
2023/05/22 08:59:55;;;;;;;6.65;3.75;;;16.30;58.40;;;;;;5010713;28;20216;-53
2023/05/22 09:02:27;;;;;;;5.03;3.75;;;16.30;58.50;;;;;;5011267;28;20184;-48
2023/05/22 09:05:00;;;;;;;4.68;3.67;;;16.30;58.60;;;;;;5010425;28;20693;-57
2023/05/22 09:07:33;;;;;;;6.00;3.75;;;16.20;58.60;;;;;;5011493;28;20212;-49
2023/05/22 09:10:06;;;;;;;5.35;3.53;;;16.20;58.70;;;;;;5011047;28;20216;-51
2023/05/22 09:12:36;;;;;;;5.63;4.05;;;16.20;58.80;;;;;;5010625;28;20279;-48
2023/05/22 09:15:12;;;;;;;4.85;4.05;;;16.20;59.40;;;;;;5011430;28;20193;-52
2023/05/22 09:17:43;;;;;;;4.15;3.60;;;16.20;58.90;;;;;;5010683;28;20192;-49
2023/05/22 09:20:18;;;;;;;5.03;4.07;;;16.20;58.90;;;;;;5011279;28;20213;-55
2023/05/22 09:22:50;;;;;;;5.18;3.92;;;16.20;58.90;;;;;;5009743;28;20578;-55
2023/05/22 09:25:22;;;;;;;5.65;3.80;;;16.20;59.00;;;;;;5010656;28;20200;-51
2023/05/22 09:27:52;;;;;;;4.75;3.70;;;16.20;59.00;;;;;;5009701;28;20221;-54
2023/05/22 09:30:23;;;;;;;5.38;3.78;;;16.20;59.00;;;;;;5010980;28;20223;-53
2023/05/22 09:32:55;;;;;;;4.88;3.88;;;16.20;59.00;;;;;;5010292;28;20904;-60
2023/05/22 09:35:28;;;;;;;5.15;3.50;;;16.20;59.10;;;;;;5010985;28;20727;-53
2023/05/22 09:38:01;;;;;;;3.78;3.17;;;16.20;59.10;;;;;;5010986;28;20217;-53
2023/05/22 09:40:33;;;;;;;6.78;3.67;;;16.20;59.10;;;;;;5009578;28;20232;-53
2023/05/22 09:43:08;;;;;;;5.80;3.85;;;16.20;59.10;;;;;;5011098;28;20228;-53
2023/05/22 09:45:39;;;;;;;5.43;3.30;;;16.10;59.10;;;;;;5011260;28;20204;-49
2023/05/22 09:48:11;;;;;;;5.05;3.28;;;16.10;59.10;;;;;;5010941;28;20225;-58
2023/05/22 09:50:42;;;;;;;4.18;3.38;;;16.10;59.10;;;;;;5009770;28;20228;-52
2023/05/22 09:53:17;;;;;;;5.13;3.70;;;16.10;59.10;;;;;;5010694;28;20232;-55
2023/05/22 09:55:51;;;;;;;4.20;3.30;;;16.10;59.10;;;;;;5010322;28;20298;-55
2023/05/22 09:58:25;;;;;;;4.85;3.60;;;16.10;59.10;;;;;;5010775;28;20199;-52
2023/05/22 10:00:58;;;;;;;3.95;2.88;;;16.10;59.10;;;;;;5010254;28;20224;-48
2023/05/22 10:03:29;;;;;;;4.95;3.33;;;16.10;59.10;;;;;;5010060;28;20193;-50
2023/05/22 10:06:02;;;;;;;3.95;3.20;;;16.10;59.10;;;;;;5010343;28;20193;-49
2023/05/22 10:08:42;;;;;;;4.43;3.45;;;16.00;59.10;;;;;;5009925;28;20812;-48
2023/05/22 10:11:14;;;;;;;5.13;3.67;;;16.00;59.10;;;;;;4989831;28;20228;-48
2023/05/22 10:13:46;;;;;;;4.13;3.20;;;16.10;59.10;;;;;;5003147;28;20200;-48
2023/05/22 10:16:18;;;;;;;4.05;3.00;;;16.00;59.10;;;;;;5010588;28;20228;-50
2023/05/22 10:18:50;;;;;;;5.68;3.42;;;16.00;59.10;;;;;;5009040;28;20247;-50
2023/05/22 10:21:21;;;;;;;5.50;3.78;;;16.00;59.10;;;;;;5009613;28;20219;-56
2023/05/22 10:23:55;;;;;;;3.38;2.80;;;16.00;59.20;;;;;;5009951;28;20201;-48
2023/05/22 10:26:27;;;;;;;5.40;3.50;;;16.00;59.20;;;;;;5009866;28;20200;-52
2023/05/22 10:29:04;;;;;;;4.72;3.30;;;15.90;59.10;;;;;;5009192;28;20293;-53
2023/05/22 10:31:42;;;;;;;4.70;3.60;;;15.90;59.20;;;;;;5009976;28;20587;-57
2023/05/22 10:34:22;;;;;;;5.07;3.60;;;15.90;59.20;;;;;;5009893;28;20620;-55
2023/05/22 10:37:03;;;;;;;4.93;3.13;;;15.90;59.10;;;;;;5010897;28;20200;-56
2023/05/22 10:39:44;;;;;;;3.72;3.33;;;15.90;59.20;;;;;;5010858;28;20207;-51
2023/05/22 10:42:16;;;;;;;5.05;3.25;;;15.90;59.20;;;;;;5010300;28;20201;-56
2023/05/22 10:44:48;;;;;;;3.85;3.20;;;15.90;59.20;;;;;;5013866;28;20205;-55
2023/05/22 10:47:19;;;;;;;3.78;2.92;;;15.80;59.20;;;;;;5014725;28;20212;-56
2023/05/22 10:49:50;;;;;;;4.43;3.50;;;15.80;59.20;;;;;;5014377;28;20225;-57
2023/05/22 10:52:20;;;;;;;3.90;3.50;;;15.80;59.10;;;;;;5014707;28;20635;-56
2023/05/22 10:54:57;;;;;;;4.47;2.75;;;15.80;59.10;;;;;;5013607;28;20189;-58
2023/05/22 10:57:28;;;;;;;4.60;3.30;;;15.80;59.20;;;;;;5011609;28;20185;-54
2023/05/22 11:00:10;;;;;;;4.78;3.38;;;15.80;59.20;;;;;;5012776;28;20262;-57
2023/05/22 11:02:45;;;;;;;5.40;3.17;;;15.80;59.10;;;;;;5013460;28;20237;-57
2023/05/22 11:05:36;;;;;;;5.10;2.80;;;15.80;59.10;;;;;;5013628;28;20193;-54
2023/05/22 11:08:34;;;;;;;4.45;3.08;;;15.70;59.10;;;;;;5011593;28;20231;-54
2023/05/22 11:11:15;;;;;;;3.88;3.00;;;15.70;59.10;;;;;;5013224;28;20216;-55
2023/05/22 11:13:52;;;;;;;5.25;3.22;;;15.70;59.10;;;;;;5012932;28;20189;-53
2023/05/22 11:16:23;;;;;;;3.75;2.88;;;15.70;59.10;;;;;;5012962;28;20188;-58
2023/05/22 11:19:07;;;;;;;3.17;2.88;;;15.60;59.10;;;;;;5013860;28;20197;-57
2023/05/22 11:21:43;;;;;;;3.70;3.28;;;15.60;59.10;;;;;;5012792;28;20255;-59
2023/05/22 11:24:17;;;;;;;3.65;2.95;;;15.60;59.20;;;;;;5012598;28;20627;-52
2023/05/22 11:27:04;;;;;;;4.28;2.90;;;15.60;59.20;;;;;;5013299;28;20621;-57
2023/05/22 11:29:36;;;;;;;3.95;2.90;;;15.60;59.10;;;;;;5011984;28;20310;-54
2023/05/22 11:32:07;;;;;;;3.45;3.05;;;15.60;59.20;;;;;;5011230;28;20189;-55
2023/05/22 11:34:41;;;;;;;3.78;2.80;;;15.60;59.20;;;;;;5013125;28;20646;-58
2023/05/22 11:37:12;;;;;;;4.43;2.92;;;15.60;59.10;;;;;;5011769;28;20189;-56
2023/05/22 11:39:43;;;;;;;4.03;3.17;;;15.60;59.20;;;;;;5013066;28;20220;-57
2023/05/22 11:42:16;;;;;;;3.22;2.60;;;15.50;59.10;;;;;;5013182;28;20200;-57
2023/05/22 11:44:46;;;;;;;3.83;2.60;;;15.50;59.10;;;;;;5013137;28;20193;-57
2023/05/22 11:47:17;;;;;;;3.42;2.55;;;15.50;59.10;;;;;;5013577;28;20225;-56
2023/05/22 11:49:48;;;;;;;3.97;3.03;;;15.50;59.10;;;;;;5010473;28;20275;-59
2023/05/22 11:52:19;;;;;;;3.60;2.60;;;15.50;59.20;;;;;;5012283;28;20200;-53
2023/05/22 11:54:50;;;;;;;3.45;2.88;;;15.50;59.10;;;;;;5011168;28;20196;-58
2023/05/22 11:57:24;;;;;;;3.95;2.78;;;15.40;59.10;;;;;;5012063;28;20196;-59
2023/05/22 11:59:54;;;;;;;3.75;2.40;;;15.50;59.20;;;;;;5012051;28;20685;-53
2023/05/22 12:02:25;;;;;;;3.17;2.83;;;15.40;59.10;;;;;;5012366;28;20208;-54
2023/05/22 12:04:57;;;;;;;3.72;2.78;;;15.40;59.20;;;;;;5012571;28;20189;-52
2023/05/22 12:07:29;;;;;;;3.67;2.65;;;15.40;59.20;;;;;;5010464;28;20287;-55
2023/05/22 12:09:59;;;;;;;3.05;2.70;;;15.40;59.10;;;;;;5012056;28;20242;-56
2023/05/22 12:12:32;;;;;;;3.95;2.40;;;15.40;59.10;;;;;;5012093;28;20194;-52
2023/05/22 12:15:06;;;;;;;3.35;2.80;;;15.40;59.20;;;;;;5011707;28;20208;-52
2023/05/22 12:17:38;;;;;;;2.63;2.42;;;15.40;59.10;;;;;;5011873;28;20699;-53
2023/05/22 12:20:13;;;;;;;2.95;2.58;;;15.40;59.10;;;;;;5009940;28;20299;-56
2023/05/22 12:22:45;;;;;;;3.72;2.72;;;15.40;59.20;;;;;;5009679;28;20191;-52
2023/05/22 12:25:19;;;;;;;4.57;2.90;;;15.30;59.10;;;;;;5011626;28;20653;-55
2023/05/22 12:27:52;;;;;;;4.25;2.90;;;15.30;59.10;;;;;;5009085;28;20762;-57
2023/05/22 12:30:23;;;;;;;3.20;2.75;;;15.30;59.10;;;;;;5011476;28;20232;-57
2023/05/22 12:32:54;;;;;;;3.42;2.67;;;15.30;59.10;;;;;;5011765;28;20549;-52
2023/05/22 12:35:25;;;;;;;4.22;2.40;;;15.30;59.10;;;;;;5008985;28;20185;-56
2023/05/22 12:37:55;;;;;;;3.30;2.47;;;15.30;59.10;;;;;;5011786;28;20189;-50
2023/05/22 12:40:26;;;;;;;2.80;2.38;;;15.30;59.20;;;;;;5008991;28;20283;-56
2023/05/22 12:42:59;;;;;;;2.85;2.42;;;15.30;59.20;;;;;;5011660;28;20200;-51
2023/05/22 12:45:29;;;;;;;3.65;2.40;;;15.30;59.10;;;;;;5011870;28;20225;-52
2023/05/22 12:48:00;;;;;;;3.33;2.70;;;15.20;59.10;;;;;;5012388;28;20275;-55
2023/05/22 12:50:31;;;;;;;2.78;2.05;;;15.20;59.10;;;;;;5011833;28;20228;-53
2023/05/22 12:53:01;;;;;;;3.47;2.60;;;15.30;59.10;;;;;;5012018;28;20229;-54
2023/05/22 12:55:32;;;;;;;3.70;2.70;;;15.20;59.10;;;;;;5012004;28;20200;-56
2023/05/22 12:58:04;;;;;;;3.58;2.60;;;15.20;59.10;;;;;;5012196;28;20243;-60
2023/05/22 13:00:35;;;;;;;3.10;2.30;;;15.20;59.00;;;;;;5011865;28;20213;-50
2023/05/22 13:03:07;;;;;;;3.42;2.53;;;15.20;59.00;;;;;;4992292;28;20224;-57
2023/05/22 13:05:38;;;;;;;3.80;2.40;;;15.20;59.00;;;;;;4991433;28;20194;-54
2023/05/22 13:08:08;;;;;;;3.85;2.55;;;15.10;59.00;;;;;;4991269;28;20649;-50
2023/05/22 13:10:39;;;;;;;2.50;2.30;;;15.10;59.00;;;;;;5007689;28;20243;-57